sensor_id;sensor_type;location;lat;lon;timestamp;pressure;altitude;pressure_sealevel;temperature;humidity
7109;BME280;29079;41.930;25.558;2023-03-04T00:02:18;99791.59;;;3.08;100.00
7109;BME280;29079;41.930;25.558;2023-03-04T00:04:51;99793.31;;;3.09;100.00
7109;BME280;29079;41.930;25.558;2023-03-04T00:07:24;99783.84;;;3.05;100.00
7109;BME280;29079;41.930;25.558;2023-03-04T00:09:57;99776.09;;;3.02;100.00
7109;BME280;29079;41.930;25.558;2023-03-04T00:12:31;99765.31;;;2.73;100.00
7109;BME280;29079;41.930;25.558;2023-03-04T00:15:05;99775.34;;;2.66;100.00
7109;BME280;29079;41.930;25.558;2023-03-04T00:17:40;99776.31;;;2.81;100.00
7109;BME280;29079;41.930;25.558;2023-03-04T00:20:14;99779.88;;;2.80;100.00
7109;BME280;29079;41.930;25.558;2023-03-04T00:22:47;99784.47;;;2.76;100.00
7109;BME280;29079;41.930;25.558;2023-03-04T00:25:20;99779.53;;;2.70;100.00
7109;BME280;29079;41.930;25.558;2023-03-04T00:27:53;99786.28;;;2.76;100.00
7109;BME280;29079;41.930;25.558;2023-03-04T00:30:26;99783.22;;;2.84;100.00
7109;BME280;29079;41.930;25.558;2023-03-04T00:33:01;99789.13;;;2.71;100.00
7109;BME280;29079;41.930;25.558;2023-03-04T00:35:35;99794.63;;;2.67;100.00
7109;BME280;29079;41.930;25.558;2023-03-04T00:38:08;99788.38;;;2.69;100.00
7109;BME280;29079;41.930;25.558;2023-03-04T00:40:41;99784.66;;;2.56;100.00
7109;BME280;29079;41.930;25.558;2023-03-04T00:43:14;99790.53;;;2.61;100.00
7109;BME280;29079;41.930;25.558;2023-03-04T00:45:47;99792.66;;;2.54;100.00
7109;BME280;29079;41.930;25.558;2023-03-04T00:48:22;99794.50;;;2.52;100.00
7109;BME280;29079;41.930;25.558;2023-03-04T00:50:55;99791.63;;;2.57;100.00
7109;BME280;29079;41.930;25.558;2023-03-04T00:53:28;99798.69;;;2.56;100.00
7109;BME280;29079;41.930;25.558;2023-03-04T00:56:01;99791.41;;;2.61;100.00
7109;BME280;29079;41.930;25.558;2023-03-04T00:58:34;99785.56;;;2.72;100.00
7109;BME280;29079;41.930;25.558;2023-03-04T01:01:07;99789.19;;;2.70;100.00
7109;BME280;29079;41.930;25.558;2023-03-04T01:03:41;99797.59;;;2.60;100.00
7109;BME280;29079;41.930;25.558;2023-03-04T01:06:15;99788.13;;;2.74;100.00
7109;BME280;29079;41.930;25.558;2023-03-04T01:08:48;99786.03;;;2.81;100.00
7109;BME280;29079;41.930;25.558;2023-03-04T01:11:21;99786.41;;;2.73;100.00
7109;BME280;29079;41.930;25.558;2023-03-04T01:13:54;99793.78;;;2.66;100.00
7109;BME280;29079;41.930;25.558;2023-03-04T01:16:28;99789.69;;;2.60;100.00
7109;BME280;29079;41.930;25.558;2023-03-04T01:19:03;99790.38;;;2.64;100.00
7109;BME280;29079;41.930;25.558;2023-03-04T01:21:36;99783.19;;;2.68;100.00
7109;BME280;29079;41.930;25.558;2023-03-04T01:24:09;99775.09;;;2.71;100.00
7109;BME280;29079;41.930;25.558;2023-03-04T01:26:43;99770.41;;;2.60;100.00
7109;BME280;29079;41.930;25.558;2023-03-04T01:29:16;99773.56;;;2.49;100.00
7109;BME280;29079;41.930;25.558;2023-03-04T01:31:49;99775.69;;;2.60;100.00
7109;BME280;29079;41.930;25.558;2023-03-04T01:34:23;99774.34;;;2.51;100.00
7109;BME280;29079;41.930;25.558;2023-03-04T01:36:56;99773.56;;;2.67;100.00
7109;BME280;29079;41.930;25.558;2023-03-04T01:39:29;99775.50;;;2.63;100.00
7109;BME280;29079;41.930;25.558;2023-03-04T01:42:03;99776.84;;;2.37;100.00
7109;BME280;29079;41.930;25.558;2023-03-04T01:44:36;99767.06;;;2.56;100.00
7109;BME280;29079;41.930;25.558;2023-03-04T01:47:09;99757.47;;;2.38;100.00
7109;BME280;29079;41.930;25.558;2023-03-04T01:49:43;99754.91;;;2.54;100.00
7109;BME280;29079;41.930;25.558;2023-03-04T01:52:17;99754.91;;;2.54;100.00
7109;BME280;29079;41.930;25.558;2023-03-04T01:54:50;99768.31;;;2.49;100.00
7109;BME280;29079;41.930;25.558;2023-03-04T01:57:24;99770.16;;;2.65;100.00
7109;BME280;29079;41.930;25.558;2023-03-04T02:00:14;99768.31;;;2.49;100.00
7109;BME280;29079;41.930;25.558;2023-03-04T02:02:50;99764.44;;;2.39;100.00
7109;BME280;29079;41.930;25.558;2023-03-04T02:05:26;99767.09;;;2.21;100.00
7109;BME280;29079;41.930;25.558;2023-03-04T02:08:00;99768.66;;;2.25;100.00
7109;BME280;29079;41.930;25.558;2023-03-04T02:10:33;99767.72;;;2.44;100.00
7109;BME280;29079;41.930;25.558;2023-03-04T02:13:08;99770.94;;;2.49;100.00
7109;BME280;29079;41.930;25.558;2023-03-04T02:15:41;99769.88;;;2.53;100.00
7109;BME280;29079;41.930;25.558;2023-03-04T02:18:15;99763.03;;;2.49;100.00
7109;BME280;29079;41.930;25.558;2023-03-04T02:20:53;99761.19;;;2.34;100.00
7109;BME280;29079;41.930;25.558;2023-03-04T02:23:29;99764.66;;;2.52;100.00
7109;BME280;29079;41.930;25.558;2023-03-04T02:26:09;99762.81;;;2.36;100.00
7109;BME280;29079;41.930;25.558;2023-03-04T02:28:43;99763.13;;;2.48;100.00
7109;BME280;29079;41.930;25.558;2023-03-04T02:31:19;99756.53;;;2.39;100.00
7109;BME280;29079;41.930;25.558;2023-03-04T02:33:55;99758.41;;;2.37;100.00
7109;BME280;29079;41.930;25.558;2023-03-04T02:36:29;99759.16;;;2.56;100.00
7109;BME280;29079;41.930;25.558;2023-03-04T02:39:03;99743.19;;;2.59;100.00
7109;BME280;29079;41.930;25.558;2023-03-04T02:41:38;99743.34;;;2.56;100.00
7109;BME280;29079;41.930;25.558;2023-03-04T02:44:14;99740.09;;;2.51;100.00
7109;BME280;29079;41.930;25.558;2023-03-04T02:46:49;99732.19;;;2.51;100.00
7109;BME280;29079;41.930;25.558;2023-03-04T02:49:23;99729.84;;;2.63;100.00
7109;BME280;29079;41.930;25.558;2023-03-04T02:51:58;99731.13;;;2.38;100.00
7109;BME280;29079;41.930;25.558;2023-03-04T02:54:32;99739.56;;;2.44;100.00
7109;BME280;29079;41.930;25.558;2023-03-04T02:57:07;99733.31;;;2.47;100.00
7109;BME280;29079;41.930;25.558;2023-03-04T02:59:41;99735.38;;;2.40;100.00
7109;BME280;29079;41.930;25.558;2023-03-04T03:02:14;99740.06;;;2.35;100.00
7109;BME280;29079;41.930;25.558;2023-03-04T03:04:48;99756.38;;;2.42;100.00
7109;BME280;29079;41.930;25.558;2023-03-04T03:07:21;99750.28;;;2.41;100.00
7109;BME280;29079;41.930;25.558;2023-03-04T03:09:54;99751.84;;;2.28;100.00
7109;BME280;29079;41.930;25.558;2023-03-04T03:12:29;99748.91;;;2.17;100.00
7109;BME280;29079;41.930;25.558;2023-03-04T03:15:03;99748.97;;;2.15;100.00
7109;BME280;29079;41.930;25.558;2023-03-04T03:17:37;99754.16;;;2.34;100.00
7109;BME280;29079;41.930;25.558;2023-03-04T03:20:11;99756.00;;;2.32;100.00
7109;BME280;29079;41.930;25.558;2023-03-04T03:22:44;99756.94;;;2.31;100.00
7109;BME280;29079;41.930;25.558;2023-03-04T03:25:17;99756.72;;;2.36;100.00
7109;BME280;29079;41.930;25.558;2023-03-04T03:27:52;99758.78;;;2.47;100.00
7109;BME280;29079;41.930;25.558;2023-03-04T03:30:25;99759.78;;;2.26;100.00
7109;BME280;29079;41.930;25.558;2023-03-04T03:32:58;99759.19;;;2.21;100.00
7109;BME280;29079;41.930;25.558;2023-03-04T03:35:31;99763.53;;;2.40;100.00
7109;BME280;29079;41.930;25.558;2023-03-04T03:38:04;99766.69;;;2.29;100.00
7109;BME280;29079;41.930;25.558;2023-03-04T03:40:37;99758.09;;;2.25;100.00
7109;BME280;29079;41.930;25.558;2023-03-04T03:43:12;99759.25;;;2.37;100.00
7109;BME280;29079;41.930;25.558;2023-03-04T03:45:45;99760.16;;;2.54;100.00
7109;BME280;29079;41.930;25.558;2023-03-04T03:48:18;99761.78;;;2.56;100.00
7109;BME280;29079;41.930;25.558;2023-03-04T03:50:52;99761.91;;;2.37;100.00
7109;BME280;29079;41.930;25.558;2023-03-04T03:53:25;99759.47;;;2.50;100.00
7109;BME280;29079;41.930;25.558;2023-03-04T03:55:59;99754.28;;;2.49;100.00
7109;BME280;29079;41.930;25.558;2023-03-04T03:58:33;99756.59;;;2.55;100.00
7109;BME280;29079;41.930;25.558;2023-03-04T04:01:06;99755.91;;;2.51;100.00
7109;BME280;29079;41.930;25.558;2023-03-04T04:03:40;99758.63;;;2.50;100.00
7109;BME280;29079;41.930;25.558;2023-03-04T04:06:12;99755.53;;;2.41;100.00
7109;BME280;29079;41.930;25.558;2023-03-04T04:08:45;99753.75;;;2.42;100.00
7109;BME280;29079;41.930;25.558;2023-03-04T04:11:19;99757.94;;;2.46;100.00
7109;BME280;29079;41.930;25.558;2023-03-04T04:13:54;99755.00;;;2.17;100.00
7109;BME280;29079;41.930;25.558;2023-03-04T04:16:28;99758.19;;;2.24;100.00
7109;BME280;29079;41.930;25.558;2023-03-04T04:19:01;99757.09;;;2.28;100.00
7109;BME280;29079;41.930;25.558;2023-03-04T04:21:34;99762.81;;;2.36;100.00
7109;BME280;29079;41.930;25.558;2023-03-04T04:24:08;99760.66;;;2.44;100.00
7109;BME280;29079;41.930;25.558;2023-03-04T04:26:41;99745.09;;;2.22;100.00
7109;BME280;29079;41.930;25.558;2023-03-04T04:29:16;99751.44;;;2.36;100.00
7109;BME280;29079;41.930;25.558;2023-03-04T04:31:49;99750.72;;;2.32;100.00
7109;BME280;29079;41.930;25.558;2023-03-04T04:34:22;99751.75;;;2.30;100.00
7109;BME280;29079;41.930;25.558;2023-03-04T04:36:55;99751.38;;;2.20;100.00
7109;BME280;29079;41.930;25.558;2023-03-04T04:39:28;99753.22;;;2.18;100.00
7109;BME280;29079;41.930;25.558;2023-03-04T04:42:01;99753.44;;;2.13;100.00
7109;BME280;29079;41.930;25.558;2023-03-04T04:44:36;99752.69;;;1.94;100.00
7109;BME280;29079;41.930;25.558;2023-03-04T04:47:09;99760.25;;;2.00;100.00
7109;BME280;29079;41.930;25.558;2023-03-04T04:49:42;99754.91;;;2.19;100.00
7109;BME280;29079;41.930;25.558;2023-03-04T04:52:15;99758.34;;;2.21;100.00
7109;BME280;29079;41.930;25.558;2023-03-04T04:54:49;99749.25;;;2.09;100.00
7109;BME280;29079;41.930;25.558;2023-03-04T04:57:22;99751.53;;;2.17;100.00
7109;BME280;29079;41.930;25.558;2023-03-04T04:59:56;99750.03;;;1.94;100.00
7109;BME280;29079;41.930;25.558;2023-03-04T05:02:29;99748.41;;;2.08;100.00
7109;BME280;29079;41.930;25.558;2023-03-04T05:05:07;99754.91;;;2.19;100.00
7109;BME280;29079;41.930;25.558;2023-03-04T05:07:40;99751.53;;;2.17;100.00
7109;BME280;29079;41.930;25.558;2023-03-04T05:10:13;99761.50;;;2.28;100.00
7109;BME280;29079;41.930;25.558;2023-03-04T05:12:46;99754.59;;;2.25;100.00
7109;BME280;29079;41.930;25.558;2023-03-04T05:15:22;99753.44;;;2.31;100.00
7109;BME280;29079;41.930;25.558;2023-03-04T05:17:56;99754.22;;;2.33;100.00
7109;BME280;29079;41.930;25.558;2023-03-04T05:20:29;99762.13;;;2.33;100.00
7109;BME280;29079;41.930;25.558;2023-03-04T05:23:02;99758.50;;;2.35;100.00
7109;BME280;29079;41.930;25.558;2023-03-04T05:25:36;99755.63;;;2.22;100.00
7109;BME280;29079;41.930;25.558;2023-03-04T05:28:09;99755.41;;;2.27;100.00
7109;BME280;29079;41.930;25.558;2023-03-04T05:30:45;99759.19;;;2.21;100.00
7109;BME280;29079;41.930;25.558;2023-03-04T05:33:18;99758.09;;;2.43;100.00
7109;BME280;29079;41.930;25.558;2023-03-04T05:35:52;99767.31;;;2.52;100.00
7109;BME280;29079;41.930;25.558;2023-03-04T05:38:25;99765.06;;;2.44;100.00
7109;BME280;29079;41.930;25.558;2023-03-04T05:40:59;99770.94;;;2.49;100.00
7109;BME280;29079;41.930;25.558;2023-03-04T05:43:33;99763.38;;;2.25;100.00
7109;BME280;29079;41.930;25.558;2023-03-04T05:46:08;99765.94;;;2.27;100.00
7109;BME280;29079;41.930;25.558;2023-03-04T05:48:45;99771.09;;;2.46;100.00
7109;BME280;29079;41.930;25.558;2023-03-04T05:51:18;99769.88;;;2.53;100.00
7109;BME280;29079;41.930;25.558;2023-03-04T05:53:51;99772.50;;;2.53;100.00
7109;BME280;29079;41.930;25.558;2023-03-04T05:56:24;99777.22;;;2.47;100.00
7109;BME280;29079;41.930;25.558;2023-03-04T05:58:57;99776.69;;;2.40;100.00
7109;BME280;29079;41.930;25.558;2023-03-04T06:01:32;99774.13;;;2.56;100.00
7109;BME280;29079;41.930;25.558;2023-03-04T06:04:05;99774.97;;;2.56;100.00
7109;BME280;29079;41.930;25.558;2023-03-04T06:06:38;99785.22;;;2.78;100.00
7109;BME280;29079;41.930;25.558;2023-03-04T06:09:11;99782.22;;;2.86;100.00
7109;BME280;29079;41.930;25.558;2023-03-04T06:11:46;99778.41;;;2.74;100.00
7109;BME280;29079;41.930;25.558;2023-03-04T06:14:19;99782.84;;;2.74;100.00
7109;BME280;29079;41.930;25.558;2023-03-04T06:16:54;99780.63;;;2.66;100.00
7109;BME280;29079;41.930;25.558;2023-03-04T06:19:27;99782.00;;;2.73;100.00
7109;BME280;29079;41.930;25.558;2023-03-04T06:22:00;99792.34;;;2.94;100.00
7109;BME280;29079;41.930;25.558;2023-03-04T06:24:34;99786.81;;;2.99;100.00
7109;BME280;29079;41.930;25.558;2023-03-04T06:27:08;99789.28;;;3.02;100.00
7109;BME280;29079;41.930;25.558;2023-03-04T06:29:40;99782.41;;;3.15;100.00
7109;BME280;29079;41.930;25.558;2023-03-04T06:32:15;99791.59;;;3.08;100.00
7109;BME280;29079;41.930;25.558;2023-03-04T06:34:48;99791.28;;;3.14;100.00
7109;BME280;29079;41.930;25.558;2023-03-04T06:37:21;99785.50;;;3.23;100.00
7109;BME280;29079;41.930;25.558;2023-03-04T06:39:54;99796.84;;;3.25;100.00
7109;BME280;29079;41.930;25.558;2023-03-04T06:42:28;99795.69;;;3.13;100.00
7109;BME280;29079;41.930;25.558;2023-03-04T06:45:01;99806.00;;;3.18;100.00
7109;BME280;29079;41.930;25.558;2023-03-04T06:47:36;99808.47;;;3.21;100.00
7109;BME280;29079;41.930;25.558;2023-03-04T06:50:10;99810.03;;;3.25;100.00
7109;BME280;29079;41.930;25.558;2023-03-04T06:52:44;99811.31;;;3.34;100.00
7109;BME280;29079;41.930;25.558;2023-03-04T06:55:18;99805.59;;;3.26;100.00
7109;BME280;29079;41.930;25.558;2023-03-04T06:57:52;99806.00;;;3.18;100.00
7109;BME280;29079;41.930;25.558;2023-03-04T07:00:25;99805.94;;;3.36;100.00
7109;BME280;29079;41.930;25.558;2023-03-04T07:03:00;99801.00;;;3.45;100.00
7109;BME280;29079;41.930;25.558;2023-03-04T07:05:33;99794.53;;;3.51;100.00
7109;BME280;29079;41.930;25.558;2023-03-04T07:08:06;99799.91;;;3.49;100.00
7109;BME280;29079;41.930;25.558;2023-03-04T07:10:39;99801.19;;;3.58;100.00
7109;BME280;29079;41.930;25.558;2023-03-04T07:13:12;99804.00;;;3.55;100.00
7109;BME280;29079;41.930;25.558;2023-03-04T07:15:46;99803.06;;;3.56;100.00
7109;BME280;29079;41.930;25.558;2023-03-04T07:18:22;99804.44;;;3.63;100.00
7109;BME280;29079;41.930;25.558;2023-03-04T07:20:55;99792.91;;;3.80;100.00
7109;BME280;29079;41.930;25.558;2023-03-04T07:23:28;99801.50;;;3.84;100.00
7109;BME280;29079;41.930;25.558;2023-03-04T07:26:02;99810.78;;;3.91;100.00
7109;BME280;29079;41.930;25.558;2023-03-04T07:28:35;99809.09;;;3.90;100.00
7109;BME280;29079;41.930;25.558;2023-03-04T07:31:10;99813.84;;;3.99;100.00
7109;BME280;29079;41.930;25.558;2023-03-04T07:33:44;99802.16;;;4.04;100.00
7109;BME280;29079;41.930;25.558;2023-03-04T07:36:17;99805.31;;;4.10;100.00
7109;BME280;29079;41.930;25.558;2023-03-04T07:38:51;99802.31;;;4.16;100.00
7109;BME280;29079;41.930;25.558;2023-03-04T07:41:26;99794.19;;;4.19;100.00
7109;BME280;29079;41.930;25.558;2023-03-04T07:44:00;99785.94;;;4.26;100.00
7109;BME280;29079;41.930;25.558;2023-03-04T07:46:33;99787.38;;;4.31;100.00
7109;BME280;29079;41.930;25.558;2023-03-04T07:49:10;99778.97;;;4.39;100.00
7109;BME280;29079;41.930;25.558;2023-03-04T07:51:43;99780.22;;;4.48;100.00
7109;BME280;29079;41.930;25.558;2023-03-04T07:54:16;99783.63;;;4.50;100.00
7109;BME280;29079;41.930;25.558;2023-03-04T07:56:50;99781.06;;;4.48;100.00
7109;BME280;29079;41.930;25.558;2023-03-04T07:59:24;99783.44;;;4.53;100.00
7109;BME280;29079;41.930;25.558;2023-03-04T08:01:58;99783.75;;;4.63;100.00
7109;BME280;29079;41.930;25.558;2023-03-04T08:04:32;99794.63;;;4.73;100.00
7109;BME280;29079;41.930;25.558;2023-03-04T08:07:06;99793.84;;;4.85;100.00
7109;BME280;29079;41.930;25.558;2023-03-04T08:09:39;99793.31;;;4.94;100.00
7109;BME280;29079;41.930;25.558;2023-03-04T08:12:14;99786.50;;;5.04;100.00
7109;BME280;29079;41.930;25.558;2023-03-04T08:14:47;99787.06;;;5.10;100.00
7109;BME280;29079;41.930;25.558;2023-03-04T08:17:21;99787.63;;;5.15;100.00
7109;BME280;29079;41.930;25.558;2023-03-04T08:19:56;99787.94;;;5.25;100.00
7109;BME280;29079;41.930;25.558;2023-03-04T08:22:29;99797.72;;;5.37;100.00
7109;BME280;29079;41.930;25.558;2023-03-04T08:25:02;99800.84;;;5.44;100.00
7109;BME280;29079;41.930;25.558;2023-03-04T08:27:35;99803.09;;;5.50;100.00
7109;BME280;29079;41.930;25.558;2023-03-04T08:30:09;99794.63;;;5.72;100.00
7109;BME280;29079;41.930;25.558;2023-03-04T08:32:43;99797.88;;;6.04;100.00
7109;BME280;29079;41.930;25.558;2023-03-04T08:35:18;99799.00;;;6.40;100.00
7109;BME280;29079;41.930;25.558;2023-03-04T08:37:51;99795.56;;;6.53;100.00
7109;BME280;29079;41.930;25.558;2023-03-04T08:40:24;99790.34;;;6.51;100.00
7109;BME280;29079;41.930;25.558;2023-03-04T08:42:58;99796.19;;;6.56;100.00
7109;BME280;29079;41.930;25.558;2023-03-04T08:45:31;99788.16;;;6.58;100.00
7109;BME280;29079;41.930;25.558;2023-03-04T08:48:04;99789.22;;;6.68;100.00
7109;BME280;29079;41.930;25.558;2023-03-04T08:50:39;99776.91;;;6.93;100.00
7109;BME280;29079;41.930;25.558;2023-03-04T08:53:13;99766.69;;;7.12;100.00
7109;BME280;29079;41.930;25.558;2023-03-04T08:55:47;99765.19;;;7.21;100.00
7109;BME280;29079;41.930;25.558;2023-03-04T08:58:20;99770.50;;;7.21;98.98
7109;BME280;29079;41.930;25.558;2023-03-04T09:00:53;99775.47;;;7.26;100.00
7109;BME280;29079;41.930;25.558;2023-03-04T09:03:26;99775.91;;;7.32;100.00
7109;BME280;29079;41.930;25.558;2023-03-04T09:06:01;99764.94;;;7.37;100.00
7109;BME280;29079;41.930;25.558;2023-03-04T09:08:35;99767.69;;;7.36;99.24
7109;BME280;29079;41.930;25.558;2023-03-04T09:11:08;99767.38;;;7.27;99.59
7109;BME280;29079;41.930;25.558;2023-03-04T09:13:42;99764.97;;;7.24;100.00
7109;BME280;29079;41.930;25.558;2023-03-04T09:16:16;99750.63;;;7.27;100.00
7109;BME280;29079;41.930;25.558;2023-03-04T09:18:49;99753.28;;;7.27;99.93
7109;BME280;29079;41.930;25.558;2023-03-04T09:21:24;99753.28;;;7.27;99.37
7109;BME280;29079;41.930;25.558;2023-03-04T09:23:57;99751.78;;;7.36;99.13
7109;BME280;29079;41.930;25.558;2023-03-04T09:26:31;99746.66;;;7.45;96.73
7109;BME280;29079;41.930;25.558;2023-03-04T09:29:04;99746.66;;;7.45;96.85
7109;BME280;29079;41.930;25.558;2023-03-04T09:31:37;99738.00;;;7.55;95.92
7109;BME280;29079;41.930;25.558;2023-03-04T09:34:11;99736.66;;;7.73;94.70
7109;BME280;29079;41.930;25.558;2023-03-04T09:36:47;99728.41;;;7.89;94.44
7109;BME280;29079;41.930;25.558;2023-03-04T09:39:22;99726.81;;;7.87;93.76
7109;BME280;29079;41.930;25.558;2023-03-04T09:41:55;99714.94;;;7.79;93.46
7109;BME280;29079;41.930;25.558;2023-03-04T09:44:30;99710.72;;;7.77;93.18
7109;BME280;29079;41.930;25.558;2023-03-04T09:47:05;99708.69;;;7.80;92.68
7109;BME280;29079;41.930;25.558;2023-03-04T09:49:39;99711.81;;;7.74;92.92
7109;BME280;29079;41.930;25.558;2023-03-04T09:52:17;99711.56;;;7.77;92.39
7109;BME280;29079;41.930;25.558;2023-03-04T09:55:01;99713.00;;;7.70;93.07
7109;BME280;29079;41.930;25.558;2023-03-04T09:57:39;99704.28;;;7.68;90.83
7109;BME280;29079;41.930;25.558;2023-03-04T10:00:16;99703.31;;;7.69;90.67
7109;BME280;29079;41.930;25.558;2023-03-04T10:03:03;99704.56;;;7.76;91.43
7109;BME280;29079;41.930;25.558;2023-03-04T10:05:38;99707.56;;;7.72;89.31
7109;BME280;29079;41.930;25.558;2023-03-04T10:08:26;99696.88;;;7.84;89.33
7109;BME280;29079;41.930;25.558;2023-03-04T10:11:04;99684.34;;;7.98;89.95
7109;BME280;29079;41.930;25.558;2023-03-04T10:13:43;99684.50;;;8.19;88.02
7109;BME280;29079;41.930;25.558;2023-03-04T10:16:24;99676.78;;;8.16;87.52
7109;BME280;29079;41.930;25.558;2023-03-04T10:19:00;99680.78;;;8.22;88.88
7109;BME280;29079;41.930;25.558;2023-03-04T10:21:34;99675.34;;;8.23;88.17
7109;BME280;29079;41.930;25.558;2023-03-04T10:24:13;99669.66;;;8.16;88.64
7109;BME280;29079;41.930;25.558;2023-03-04T10:26:50;99663.16;;;8.21;87.48
7109;BME280;29079;41.930;25.558;2023-03-04T10:29:24;99661.44;;;8.19;88.28
7109;BME280;29079;41.930;25.558;2023-03-04T10:31:58;99658.47;;;8.35;88.39
7109;BME280;29079;41.930;25.558;2023-03-04T10:34:31;99657.72;;;8.33;88.03
7109;BME280;29079;41.930;25.558;2023-03-04T10:37:05;99658.38;;;8.48;88.80
7109;BME280;29079;41.930;25.558;2023-03-04T10:39:41;99654.59;;;8.40;87.32
7109;BME280;29079;41.930;25.558;2023-03-04T10:45:11;99639.09;;;8.33;87.49
7109;BME280;29079;41.930;25.558;2023-03-04T10:47:51;99642.25;;;8.27;88.93
7109;BME280;29079;41.930;25.558;2023-03-04T10:50:25;99631.59;;;8.27;89.41
7109;BME280;29079;41.930;25.558;2023-03-04T10:52:58;99629.81;;;8.28;89.33
7109;BME280;29079;41.930;25.558;2023-03-04T10:55:42;99629.31;;;8.23;89.05
7109;BME280;29079;41.930;25.558;2023-03-04T10:58:16;99621.56;;;8.19;88.67
7109;BME280;29079;41.930;25.558;2023-03-04T11:00:58;99624.84;;;8.23;89.84
7109;BME280;29079;41.930;25.558;2023-03-04T11:03:33;99630.03;;;8.25;89.98
7109;BME280;29079;41.930;25.558;2023-03-04T11:06:09;99617.72;;;8.24;91.16
7109;BME280;29079;41.930;25.558;2023-03-04T11:08:43;99616.03;;;8.34;90.85
7109;BME280;29079;41.930;25.558;2023-03-04T11:11:26;99608.66;;;8.37;91.92
7109;BME280;29079;41.930;25.558;2023-03-04T11:14:03;99596.94;;;8.40;92.95
7109;BME280;29079;41.930;25.558;2023-03-04T11:16:40;99594.16;;;8.42;94.77
7109;BME280;29079;41.930;25.558;2023-03-04T11:19:26;99595.97;;;8.41;95.38
7109;BME280;29079;41.930;25.558;2023-03-04T11:22:01;99585.91;;;8.33;94.63
7109;BME280;29079;41.930;25.558;2023-03-04T11:24:34;99586.53;;;8.26;93.66
7109;BME280;29079;41.930;25.558;2023-03-04T11:27:13;99587.97;;;8.18;93.58
7109;BME280;29079;41.930;25.558;2023-03-04T11:29:50;99578.09;;;8.21;95.04
7109;BME280;29079;41.930;25.558;2023-03-04T11:32:27;99579.63;;;8.34;94.07
7109;BME280;29079;41.930;25.558;2023-03-04T11:35:03;99579.31;;;8.50;94.71
7109;BME280;29079;41.930;25.558;2023-03-04T11:37:40;99570.19;;;8.76;93.16
7109;BME280;29079;41.930;25.558;2023-03-04T11:40:17;99567.41;;;8.88;93.62
7109;BME280;29079;41.930;25.558;2023-03-04T11:42:58;99553.69;;;9.04;92.37
7109;BME280;29079;41.930;25.558;2023-03-04T11:45:37;99559.25;;;9.01;90.92
7109;BME280;29079;41.930;25.558;2023-03-04T11:48:17;99551.41;;;9.00;90.57
7109;BME280;29079;41.930;25.558;2023-03-04T11:50:56;99541.63;;;9.00;90.79
7109;BME280;29079;41.930;25.558;2023-03-04T11:53:36;99548.47;;;9.03;90.04
7109;BME280;29079;41.930;25.558;2023-03-04T11:56:15;99547.53;;;9.04;88.71
7109;BME280;29079;41.930;25.558;2023-03-04T11:59:03;99549.53;;;9.12;89.37
7109;BME280;29079;41.930;25.558;2023-03-04T12:01:40;99539.53;;;9.04;88.34
7109;BME280;29079;41.930;25.558;2023-03-04T12:04:26;99535.31;;;9.01;88.71
7109;BME280;29079;41.930;25.558;2023-03-04T12:07:08;99535.31;;;9.01;89.32
7109;BME280;29079;41.930;25.558;2023-03-04T12:09:46;99530.41;;;9.18;89.22
7109;BME280;29079;41.930;25.558;2023-03-04T12:12:31;99531.25;;;9.39;88.10
7109;BME280;29079;41.930;25.558;2023-03-04T12:15:11;99525.84;;;9.41;87.91
7109;BME280;29079;41.930;25.558;2023-03-04T12:17:53;99520.16;;;9.34;87.69
7109;BME280;29079;41.930;25.558;2023-03-04T12:26:12;99526.94;;;9.38;85.58
7109;BME280;29079;41.930;25.558;2023-03-04T12:28:52;99526.16;;;9.27;86.33
7109;BME280;29079;41.930;25.558;2023-03-04T12:31:33;99520.34;;;9.21;86.73
7109;BME280;29079;41.930;25.558;2023-03-04T12:34:13;99513.50;;;9.40;85.40
7109;BME280;29079;41.930;25.558;2023-03-04T12:36:53;99519.22;;;9.35;85.36
7109;BME280;29079;41.930;25.558;2023-03-04T12:39:31;99519.13;;;9.47;85.40
7109;BME280;29079;41.930;25.558;2023-03-04T12:42:07;99514.13;;;9.53;85.55
7109;BME280;29079;41.930;25.558;2023-03-04T12:44:41;99513.78;;;9.47;85.96
7109;BME280;29079;41.930;25.558;2023-03-04T12:47:25;99510.34;;;9.35;86.34
7109;BME280;29079;41.930;25.558;2023-03-04T12:50:17;99505.09;;;9.45;85.19
7109;BME280;29079;41.930;25.558;2023-03-04T12:52:57;99505.88;;;9.35;85.83
7109;BME280;29079;41.930;25.558;2023-03-04T12:55:34;99499.97;;;9.32;86.07
7109;BME280;29079;41.930;25.558;2023-03-04T12:58:12;99498.78;;;9.24;85.95
7109;BME280;29079;41.930;25.558;2023-03-04T13:00:48;99497.44;;;9.30;85.81
7109;BME280;29079;41.930;25.558;2023-03-04T13:03:27;99488.41;;;9.21;86.07
7109;BME280;29079;41.930;25.558;2023-03-04T13:06:06;99485.22;;;9.28;86.44
7109;BME280;29079;41.930;25.558;2023-03-04T13:08:46;99479.19;;;9.26;86.28
7109;BME280;29079;41.930;25.558;2023-03-04T13:14:23;99475.34;;;9.39;85.52
7109;BME280;29079;41.930;25.558;2023-03-04T13:16:57;99477.38;;;9.47;85.72
7109;BME280;29079;41.930;25.558;2023-03-04T13:19:47;99468.34;;;9.38;85.50
7109;BME280;29079;41.930;25.558;2023-03-04T13:22:33;99461.84;;;9.31;86.04
7109;BME280;29079;41.930;25.558;2023-03-04T13:28:05;99460.47;;;9.37;85.83
7109;BME280;29079;41.930;25.558;2023-03-04T13:33:58;99452.75;;;9.34;86.27
7109;BME280;29079;41.930;25.558;2023-03-04T13:39:28;99445.28;;;9.49;84.89
7109;BME280;29079;41.930;25.558;2023-03-04T13:42:02;99440.84;;;9.38;85.42
7109;BME280;29079;41.930;25.558;2023-03-04T13:47:43;99433.97;;;9.35;85.47
7109;BME280;29079;41.930;25.558;2023-03-04T13:50:24;99436.94;;;9.42;84.49
7109;BME280;29079;41.930;25.558;2023-03-04T13:56:06;99431.47;;;9.44;83.84
7109;BME280;29079;41.930;25.558;2023-03-04T13:58:40;99431.63;;;9.42;84.73
7109;BME280;29079;41.930;25.558;2023-03-04T14:01:20;99434.69;;;9.37;84.38
7109;BME280;29079;41.930;25.558;2023-03-04T14:03:54;99430.72;;;9.32;84.67
7109;BME280;29079;41.930;25.558;2023-03-04T14:06:27;99419.09;;;9.33;85.96
7109;BME280;29079;41.930;25.558;2023-03-04T14:09:08;99419.81;;;9.35;84.81
7109;BME280;29079;41.930;25.558;2023-03-04T14:11:46;99413.63;;;9.34;84.25
7109;BME280;29079;41.930;25.558;2023-03-04T14:14:21;99417.00;;;9.36;84.25